createdAt,value
2022-09-07T00:02:37.040Z,11.29
2022-09-07T00:07:41.248Z,11.42
2022-09-07T00:12:45.210Z,11.05
2022-09-07T00:17:50.500Z,10.91
2022-09-07T00:22:54.485Z,11.11
2022-09-07T00:27:58.494Z,11.18
2022-09-07T00:33:03.873Z,11.08
2022-09-07T00:38:07.765Z,10.83
2022-09-07T00:43:17.379Z,10.76
2022-09-07T00:48:27.067Z,10.88
2022-09-07T00:53:34.504Z,11.06
2022-09-07T00:58:41.912Z,10.96
2022-09-07T01:03:55.037Z,10.74
2022-09-07T01:09:03.672Z,11.11
2022-09-07T01:14:10.709Z,11.00
2022-09-07T01:19:49.396Z,11.12
2022-09-07T01:25:04.321Z,11.25
2022-09-07T01:30:12.923Z,10.76
2022-09-07T01:35:38.755Z,10.70
2022-09-07T01:40:50.408Z,10.53
2022-09-07T01:45:58.404Z,10.18
2022-09-07T01:51:04.933Z,10.23
2022-09-07T01:56:14.401Z,10.66
2022-09-07T02:01:25.442Z,10.18
2022-09-07T02:06:38.024Z,9.94
2022-09-07T02:11:45.207Z,9.83
2022-09-07T02:16:57.430Z,10.10
2022-09-07T02:22:06.211Z,9.92
2022-09-07T02:27:15.236Z,9.03
2022-09-07T02:32:20.615Z,9.94
2022-09-07T02:37:28.726Z,9.52
2022-09-07T02:42:35.278Z,10.01
2022-09-07T02:47:53.655Z,10.11
2022-09-07T02:53:13.803Z,10.10
2022-09-07T02:58:27.913Z,9.64
2022-09-07T03:03:46.090Z,9.72
2022-09-07T03:08:54.608Z,10.21
2022-09-07T03:14:13.146Z,10.14
2022-09-07T03:19:18.900Z,9.76
2022-09-07T03:24:25.266Z,9.38
2022-09-07T03:29:29.413Z,9.86
2022-09-07T03:34:35.716Z,9.84
2022-09-07T03:39:39.554Z,9.72
2022-09-07T03:44:43.495Z,9.19
2022-09-07T03:49:49.147Z,9.25
2022-09-07T03:54:53.113Z,8.86
2022-09-07T03:59:57.017Z,9.11
2022-09-07T04:05:02.302Z,9.00
2022-09-07T04:10:06.682Z,8.63
2022-09-07T04:15:11.846Z,9.26
2022-09-07T04:20:19.899Z,8.94
2022-09-07T04:25:23.963Z,9.27
2022-09-07T04:30:28.137Z,10.06
2022-09-07T04:35:37.292Z,10.11
2022-09-07T04:40:41.460Z,10.25
2022-09-07T04:45:45.473Z,10.44
2022-09-07T04:50:52.181Z,10.01
2022-09-07T04:55:56.131Z,10.38
2022-09-07T05:01:03.088Z,10.38
2022-09-07T05:06:09.593Z,10.89
2022-09-07T05:11:15.063Z,10.76
2022-09-07T05:16:20.877Z,10.34
2022-09-07T05:21:28.393Z,10.25
2022-09-07T05:26:34.672Z,10.56
2022-09-07T05:31:38.338Z,10.75
2022-09-07T05:36:43.731Z,11.18
2022-09-07T05:41:47.743Z,11.37
2022-09-07T05:46:52.690Z,11.19
2022-09-07T05:51:58.113Z,11.61
2022-09-07T05:57:05.388Z,12.06
2022-09-07T06:02:12.315Z,12.10
2022-09-07T06:07:21.981Z,12.35
2022-09-07T06:12:26.878Z,12.06
2022-09-07T06:17:31.636Z,13.07
2022-09-07T06:22:38.323Z,13.42
2022-09-07T06:27:42.278Z,13.47
2022-09-07T06:32:46.459Z,12.97
2022-09-07T06:37:51.816Z,13.95
2022-09-07T06:42:55.759Z,13.84
2022-09-07T06:47:59.720Z,14.79
2022-09-07T06:58:29.415Z,16.49
2022-09-07T07:03:33.745Z,15.46
2022-09-07T07:11:15.039Z,15.98
2022-09-07T07:56:45.617Z,17.62
2022-09-07T08:09:14.227Z,18.05
2022-09-07T08:14:58.204Z,18.05
2022-09-07T08:20:14.124Z,17.41
2022-09-07T08:25:19.369Z,17.70
2022-09-07T08:30:23.177Z,18.11
2022-09-07T08:35:28.592Z,18.36
2022-09-07T08:40:40.380Z,17.77
2022-09-07T08:45:47.498Z,18.52
2022-09-07T08:50:56.490Z,18.52
2022-09-07T08:56:05.605Z,18.47
2022-09-07T09:06:50.222Z,19.35
2022-09-07T09:12:14.022Z,19.58
2022-09-07T09:17:29.633Z,19.33
2022-09-07T09:22:53.802Z,18.85
2022-09-07T09:28:32.458Z,19.33
2022-09-07T09:33:34.894Z,20.03
2022-09-07T09:38:50.062Z,19.77
2022-09-07T09:43:57.350Z,20.26
2022-09-07T09:49:04.793Z,20.32
2022-09-07T09:54:26.043Z,20.05
2022-09-07T10:00:28.040Z,20.57
2022-09-07T10:13:14.065Z,20.41
2022-09-07T10:18:59.059Z,20.72
2022-09-07T10:24:29.147Z,21.51
2022-09-07T10:29:42.618Z,21.18
2022-09-07T10:34:58.512Z,21.74
2022-09-07T10:40:12.475Z,21.43
2022-09-07T10:45:21.612Z,21.63
2022-09-07T10:50:32.046Z,22.70
2022-09-07T10:55:41.352Z,22.01
2022-09-07T11:00:59.041Z,22.99
2022-09-07T11:06:15.258Z,22.65
2022-09-07T11:17:07.150Z,23.05
2022-09-07T11:22:21.241Z,23.69
2022-09-07T11:27:30.757Z,23.12
2022-09-07T11:32:38.682Z,24.01
2022-09-07T11:37:48.211Z,26.11
2022-09-07T11:42:55.913Z,28.30
2022-09-07T11:48:04.713Z,26.99
2022-09-07T11:53:16.615Z,29.02
2022-09-07T11:58:50.369Z,30.73
2022-09-07T12:04:15.369Z,30.67
2022-09-07T12:09:37.197Z,32.20
2022-09-07T12:14:56.521Z,31.38
2022-09-07T12:20:24.989Z,32.68
2022-09-07T12:25:51.825Z,32.96
2022-09-07T12:31:01.916Z,30.91
2022-09-07T12:36:39.620Z,30.86
2022-09-07T12:41:47.969Z,31.20
2022-09-07T12:47:03.310Z,32.42
2022-09-07T12:52:23.169Z,31.36
2022-09-07T12:58:43.793Z,32.10
2022-09-07T13:19:02.025Z,31.99
2022-09-07T13:24:47.150Z,31.42
2022-09-07T13:29:56.581Z,30.27
2022-09-07T13:35:19.355Z,30.05
2022-09-07T13:40:27.616Z,29.82
2022-09-07T13:45:45.655Z,29.22
2022-09-07T13:50:58.323Z,29.59
2022-09-07T13:56:15.578Z,30.14
2022-09-07T14:01:22.182Z,30.17
2022-09-07T14:06:33.637Z,28.96
2022-09-07T14:11:42.468Z,30.26
2022-09-07T14:16:49.607Z,29.76
2022-09-07T14:22:01.503Z,30.94
2022-09-07T14:27:07.947Z,29.32
2022-09-07T14:32:17.378Z,29.86
2022-09-07T14:37:24.036Z,29.43
2022-09-07T14:42:27.939Z,29.61
2022-09-07T14:47:34.882Z,29.05
2022-09-07T14:53:33.599Z,29.27
2022-09-07T14:58:11.907Z,29.99
2022-09-07T15:03:30.454Z,29.27
2022-09-07T15:08:41.332Z,29.53
2022-09-07T15:13:53.751Z,28.55
2022-09-07T15:19:02.456Z,29.15
2022-09-07T15:24:07.885Z,29.87
2022-09-07T15:29:13.003Z,28.47
2022-09-07T15:34:18.754Z,27.97
2022-09-07T15:39:25.713Z,28.32
2022-09-07T15:44:30.186Z,27.75
2022-09-07T15:49:34.453Z,27.58
2022-09-07T15:54:40.085Z,27.22
2022-09-07T15:59:44.419Z,27.63
2022-09-07T16:04:48.334Z,26.55
2022-09-07T16:09:53.795Z,26.66
2022-09-07T16:14:57.967Z,26.43
2022-09-07T16:20:02.545Z,25.83
2022-09-07T16:25:08.599Z,26.10
2022-09-07T16:30:13.497Z,25.90
2022-09-07T16:35:18.290Z,26.04
2022-09-07T16:40:23.568Z,25.67
2022-09-07T16:51:00.279Z,23.71
2022-09-07T16:56:08.745Z,23.22
2022-09-07T17:01:14.860Z,22.46
2022-09-07T17:06:20.593Z,22.18
2022-09-07T17:11:27.441Z,22.02
2022-09-07T17:16:33.591Z,21.68
2022-09-07T17:21:41.118Z,21.55
2022-09-07T17:27:15.929Z,21.18
2022-09-07T17:32:24.445Z,20.99
2022-09-07T17:37:28.946Z,20.68
2022-09-07T17:47:58.387Z,20.37
2022-09-07T17:53:02.425Z,19.61
2022-09-07T17:58:07.747Z,19.25
2022-09-07T18:03:12.926Z,19.15
2022-09-07T18:08:17.026Z,19.31
2022-09-07T18:13:33.588Z,19.41
2022-09-07T18:18:40.061Z,19.31
2022-09-07T18:23:44.193Z,18.94
2022-09-07T18:29:15.898Z,18.53
2022-09-07T18:34:15.843Z,18.57
2022-09-07T18:39:19.910Z,18.76
2022-09-07T18:49:50.859Z,18.82
2022-09-07T18:54:54.757Z,18.60
2022-09-07T19:00:00.061Z,18.33
2022-09-07T19:10:28.441Z,18.44
2022-09-07T19:15:37.949Z,18.11
2022-09-07T19:20:42.202Z,17.76
2022-09-07T19:25:46.049Z,18.01
2022-09-07T19:30:51.393Z,17.91
2022-09-07T19:35:55.407Z,17.95
2022-09-07T19:41:00.036Z,17.91
2022-09-07T19:46:05.449Z,17.13
2022-09-07T19:51:12.061Z,17.53
2022-09-07T19:56:17.345Z,17.40
2022-09-07T20:01:25.137Z,17.29
2022-09-07T20:06:29.338Z,16.94
2022-09-07T20:11:34.765Z,17.10
2022-09-07T20:16:41.771Z,17.03
2022-09-07T20:26:57.361Z,16.64
2022-09-07T20:32:01.754Z,16.56
2022-09-07T20:37:06.534Z,16.36
2022-09-07T20:42:11.865Z,16.16
2022-09-07T20:47:15.661Z,16.12
2022-09-07T20:52:19.493Z,16.22
2022-09-07T20:57:24.853Z,15.76
2022-09-07T21:02:28.804Z,15.74
2022-09-07T21:07:32.929Z,16.44
2022-09-07T21:12:38.259Z,16.40
2022-09-07T21:17:42.027Z,16.39
2022-09-07T21:22:45.785Z,16.60
2022-09-07T21:27:50.948Z,16.41
2022-09-07T21:32:54.923Z,16.31
2022-09-07T21:37:58.676Z,16.33
2022-09-07T21:43:03.691Z,16.27
2022-09-07T21:48:07.426Z,15.96
2022-09-07T21:53:12.742Z,15.46
2022-09-07T21:58:17.776Z,15.32
2022-09-07T22:03:22.361Z,15.26
2022-09-07T22:08:26.019Z,15.49
2022-09-07T22:13:31.130Z,15.39
2022-09-07T22:18:38.020Z,15.68
2022-09-07T22:23:45.518Z,15.20
2022-09-07T22:28:50.974Z,15.53
2022-09-07T22:33:56.807Z,15.30
2022-09-07T22:39:03.188Z,15.78
2022-09-07T22:44:12.094Z,15.58
2022-09-07T22:49:17.966Z,15.20
2022-09-07T22:54:21.740Z,15.18
2022-09-07T22:59:26.844Z,14.97
2022-09-07T23:04:31.912Z,15.17
2022-09-07T23:09:35.777Z,14.77
2022-09-07T23:14:40.780Z,14.75
2022-09-07T23:19:44.603Z,14.22
2022-09-07T23:24:48.612Z,14.42
2022-09-07T23:29:53.633Z,14.50
2022-09-07T23:34:57.345Z,14.62
2022-09-07T23:40:01.109Z,14.71
2022-09-07T23:45:08.256Z,14.48
2022-09-07T23:50:12.313Z,14.51
2022-09-07T23:55:16.159Z,13.87
